Conwy, United Kingdom
Current Conditions -  °F | °C
As of 9:50 PM on Friday 19 Dec 2014 (Local Time) from EGOV Reporting Station
Broken Clouds Broken Clouds  
Wind Chill: 39°   Ceiling: 4700
Heat Index: 46°   Visibility: 6mi
Dew Point: 37°   Wind: 22mph
Humidity: 71%   Direction: 260°W
Pressure: 30.15"   Gusts: NA
Location:  53.28°N, 3.83°W
Report Text: EGOV 192150Z AUTO 26019KT 9999 BKN047/// 08/03 Q1021
Loading
Personal Weather Stations






























Interactive Weather Map New forecast layout! Learn more

10-Day Weather Forecast

Advertisements
Track Severe Weather on mobile